sensor_id;sensor_type;location;lat;lon;timestamp;pressure;altitude;pressure_sealevel;temperature;humidity
20009;BME280;10165;42.662;23.260;2022-10-12T00:00:57;94711.41;;;16.85;68.42
20009;BME280;10165;42.662;23.260;2022-10-12T00:03:24;94716.41;;;16.87;68.22
20009;BME280;10165;42.662;23.260;2022-10-12T00:06:26;94711.34;;;16.82;68.57
20009;BME280;10165;42.662;23.260;2022-10-12T00:08:53;94721.53;;;16.95;68.27
20009;BME280;10165;42.662;23.260;2022-10-12T00:11:25;94719.56;;;16.92;67.73
20009;BME280;10165;42.662;23.260;2022-10-12T00:13:53;94702.16;;;16.86;68.34
20009;BME280;10165;42.662;23.260;2022-10-12T00:16:22;94708.47;;;16.67;69.02
20009;BME280;10165;42.662;23.260;2022-10-12T00:18:53;94702.03;;;16.76;68.56
20009;BME280;10165;42.662;23.260;2022-10-12T00:21:22;94705.84;;;16.71;68.86
20009;BME280;10165;42.662;23.260;2022-10-12T00:23:48;94708.94;;;16.73;69.15
20009;BME280;10165;42.662;23.260;2022-10-12T00:26:20;94712.13;;;16.52;69.58
20009;BME280;10165;42.662;23.260;2022-10-12T00:28:47;94706.69;;;16.19;70.62
20009;BME280;10165;42.662;23.260;2022-10-12T00:31:17;94712.09;;;15.66;73.28
20009;BME280;10165;42.662;23.260;2022-10-12T00:33:45;94712.56;;;15.98;73.08
20009;BME280;10165;42.662;23.260;2022-10-12T00:38:41;94707.66;;;16.34;71.50
20009;BME280;10165;42.662;23.260;2022-10-12T00:41:09;94700.94;;;16.50;70.58
20009;BME280;10165;42.662;23.260;2022-10-12T00:43:38;94701.66;;;16.47;70.61
20009;BME280;10165;42.662;23.260;2022-10-12T00:49:04;94696.63;;;16.46;69.67
20009;BME280;10165;42.662;23.260;2022-10-12T00:51:33;94696.69;;;16.49;69.72
20009;BME280;10165;42.662;23.260;2022-10-12T00:54:05;94697.34;;;16.69;69.22
20009;BME280;10165;42.662;23.260;2022-10-12T00:56:35;94698.25;;;16.84;69.08
20009;BME280;10165;42.662;23.260;2022-10-12T00:59:07;94703.72;;;16.91;68.74
20009;BME280;10165;42.662;23.260;2022-10-12T01:01:37;94701.06;;;16.94;68.45
20009;BME280;10165;42.662;23.260;2022-10-12T01:04:04;94689.91;;;16.96;68.53
20009;BME280;10165;42.662;23.260;2022-10-12T01:06:33;94702.34;;;17.04;68.40
20009;BME280;10165;42.662;23.260;2022-10-12T01:09:00;94697.34;;;17.06;68.06
20009;BME280;10165;42.662;23.260;2022-10-12T01:11:27;94701.03;;;16.91;68.15
20009;BME280;10165;42.662;23.260;2022-10-12T01:13:54;94698.38;;;16.94;68.04
20009;BME280;10165;42.662;23.260;2022-10-12T01:18:59;94702.75;;;16.13;71.27
20009;BME280;10165;42.662;23.260;2022-10-12T01:21:33;94706.69;;;16.19;71.39
20009;BME280;10165;42.662;23.260;2022-10-12T01:30:06;94704.88;;;16.56;69.93
20009;BME280;10165;42.662;23.260;2022-10-12T01:43:22;94703.16;;;16.71;68.68
20009;BME280;10165;42.662;23.260;2022-10-12T01:45:49;94700.84;;;16.73;68.24
20009;BME280;10165;42.662;23.260;2022-10-12T01:49:00;94699.47;;;16.56;69.60
20009;BME280;10165;42.662;23.260;2022-10-12T20:37:58;94867.31;;;13.53;50.82
20009;BME280;10165;42.662;23.260;2022-10-12T20:40:27;94855.50;;;14.01;49.21
20009;BME280;10165;42.662;23.260;2022-10-12T20:42:55;94851.16;;;14.12;48.06
20009;BME280;10165;42.662;23.260;2022-10-12T20:45:22;94854.19;;;14.11;48.13
20009;BME280;10165;42.662;23.260;2022-10-12T20:47:48;94853.66;;;14.21;48.17
20009;BME280;10165;42.662;23.260;2022-10-12T20:50:15;94851.84;;;14.25;48.20
20009;BME280;10165;42.662;23.260;2022-10-12T20:52:42;94868.91;;;14.32;49.17
20009;BME280;10165;42.662;23.260;2022-10-12T20:55:09;94868.25;;;14.35;48.97
20009;BME280;10165;42.662;23.260;2022-10-12T20:57:36;94866.47;;;14.59;49.08
20009;BME280;10165;42.662;23.260;2022-10-12T21:00:03;94860.47;;;14.65;49.69
20009;BME280;10165;42.662;23.260;2022-10-12T21:02:30;94862.41;;;14.49;50.83
20009;BME280;10165;42.662;23.260;2022-10-12T21:04:58;94863.63;;;14.52;51.29
20009;BME280;10165;42.662;23.260;2022-10-12T21:07:25;94862.84;;;14.51;51.49
20009;BME280;10165;42.662;23.260;2022-10-12T21:09:52;94849.66;;;14.30;51.96
20009;BME280;10165;42.662;23.260;2022-10-12T21:12:18;94856.06;;;14.26;52.24
20009;BME280;10165;42.662;23.260;2022-10-12T21:14:46;94860.38;;;14.62;51.86
20009;BME280;10165;42.662;23.260;2022-10-12T21:17:13;94854.16;;;14.58;51.78
20009;BME280;10165;42.662;23.260;2022-10-12T21:19:40;94853.38;;;14.42;52.37
20009;BME280;10165;42.662;23.260;2022-10-12T21:22:06;94848.72;;;14.23;52.72
20009;BME280;10165;42.662;23.260;2022-10-12T21:24:33;94839.84;;;14.54;52.07
20009;BME280;10165;42.662;23.260;2022-10-12T21:27:01;94852.63;;;14.41;52.86
20009;BME280;10165;42.662;23.260;2022-10-12T21:29:27;94847.34;;;14.45;53.05
20009;BME280;10165;42.662;23.260;2022-10-12T21:31:54;94845.44;;;14.64;52.62
20009;BME280;10165;42.662;23.260;2022-10-12T21:34:21;94845.38;;;14.10;54.27
20009;BME280;10165;42.662;23.260;2022-10-12T21:36:47;94844.66;;;13.82;55.04
20009;BME280;10165;42.662;23.260;2022-10-12T21:39:15;94838.09;;;13.79;55.83
20009;BME280;10165;42.662;23.260;2022-10-12T21:41:42;94849.16;;;13.94;55.42
20009;BME280;10165;42.662;23.260;2022-10-12T21:44:10;94849.84;;;14.22;54.74
20009;BME280;10165;42.662;23.260;2022-10-12T21:46:37;94849.66;;;14.46;54.39
20009;BME280;10165;42.662;23.260;2022-10-12T21:49:04;94855.31;;;14.25;55.23
20009;BME280;10165;42.662;23.260;2022-10-12T21:51:35;94854.53;;;14.25;55.33
20009;BME280;10165;42.662;23.260;2022-10-12T21:54:04;94860.00;;;14.28;55.45
20009;BME280;10165;42.662;23.260;2022-10-12T21:56:33;94860.34;;;14.43;54.94
20009;BME280;10165;42.662;23.260;2022-10-12T21:59:01;94855.81;;;14.31;55.17
20009;BME280;10165;42.662;23.260;2022-10-12T22:01:38;94849.03;;;14.53;54.75
20009;BME280;10165;42.662;23.260;2022-10-12T22:04:08;94845.81;;;14.63;54.82
20009;BME280;10165;42.662;23.260;2022-10-12T22:06:36;94840.03;;;14.45;55.44
20009;BME280;10165;42.662;23.260;2022-10-12T22:09:06;94837.38;;;14.29;56.40
20009;BME280;10165;42.662;23.260;2022-10-12T22:11:35;94841.97;;;14.45;56.08
20009;BME280;10165;42.662;23.260;2022-10-12T22:14:04;94837.69;;;14.28;56.54
20009;BME280;10165;42.662;23.260;2022-10-12T22:16:33;94842.63;;;14.26;56.19
20009;BME280;10165;42.662;23.260;2022-10-12T22:19:04;94851.50;;;13.79;57.53
20009;BME280;10165;42.662;23.260;2022-10-12T22:21:32;94856.28;;;14.02;57.30
20009;BME280;10165;42.662;23.260;2022-10-12T22:23:59;94850.28;;;13.77;57.49
20009;BME280;10165;42.662;23.260;2022-10-12T22:26:26;94853.13;;;13.68;57.78
20009;BME280;10165;42.662;23.260;2022-10-12T22:28:53;94851.91;;;13.66;58.21
20009;BME280;10165;42.662;23.260;2022-10-12T22:31:21;94851.84;;;13.62;58.36
20009;BME280;10165;42.662;23.260;2022-10-12T22:33:48;94854.84;;;13.45;58.20
20009;BME280;10165;42.662;23.260;2022-10-12T22:36:15;94871.44;;;12.55;60.68
20009;BME280;10165;42.662;23.260;2022-10-12T22:38:42;94856.09;;;13.08;59.76
20009;BME280;10165;42.662;23.260;2022-10-12T22:41:12;94855.09;;;13.40;58.76
20009;BME280;10165;42.662;23.260;2022-10-12T22:43:39;94859.47;;;13.60;58.32
20009;BME280;10165;42.662;23.260;2022-10-12T22:46:05;94863.78;;;13.80;57.67
20009;BME280;10165;42.662;23.260;2022-10-12T22:48:33;94866.72;;;13.16;58.69
20009;BME280;10165;42.662;23.260;2022-10-12T22:51:00;94867.72;;;13.12;59.63
20009;BME280;10165;42.662;23.260;2022-10-12T22:53:28;94864.53;;;13.50;59.03
20009;BME280;10165;42.662;23.260;2022-10-12T22:56:03;94865.69;;;13.49;57.93
20009;BME280;10165;42.662;23.260;2022-10-12T22:58:31;94867.56;;;13.48;58.11
20009;BME280;10165;42.662;23.260;2022-10-12T23:01:07;94865.06;;;13.55;57.81
20009;BME280;10165;42.662;23.260;2022-10-12T23:03:35;94875.81;;;13.55;57.66
20009;BME280;10165;42.662;23.260;2022-10-12T23:06:02;94872.78;;;13.72;57.54
20009;BME280;10165;42.662;23.260;2022-10-12T23:08:30;94874.63;;;13.84;57.02
20009;BME280;10165;42.662;23.260;2022-10-12T23:11:04;94872.44;;;13.58;57.25
20009;BME280;10165;42.662;23.260;2022-10-12T23:13:32;94884.50;;;13.36;57.28
20009;BME280;10165;42.662;23.260;2022-10-12T23:16:04;94886.22;;;13.57;56.74
20009;BME280;10165;42.662;23.260;2022-10-12T23:18:31;94882.31;;;13.70;56.87
20009;BME280;10165;42.662;23.260;2022-10-12T23:21:03;94883.63;;;13.60;56.85
20009;BME280;10165;42.662;23.260;2022-10-12T23:23:31;94883.97;;;13.74;56.61
20009;BME280;10165;42.662;23.260;2022-10-12T23:26:00;94884.13;;;13.66;56.33
20009;BME280;10165;42.662;23.260;2022-10-12T23:28:27;94874.31;;;13.42;57.33
20009;BME280;10165;42.662;23.260;2022-10-12T23:30:54;94881.50;;;13.54;56.98
20009;BME280;10165;42.662;23.260;2022-10-12T23:33:21;94880.91;;;13.45;57.58
20009;BME280;10165;42.662;23.260;2022-10-12T23:35:58;94880.91;;;13.45;56.93
20009;BME280;10165;42.662;23.260;2022-10-12T23:38:28;94875.03;;;13.27;56.86
20009;BME280;10165;42.662;23.260;2022-10-12T23:40:55;94880.31;;;13.23;57.74
20009;BME280;10165;42.662;23.260;2022-10-12T23:43:22;94878.88;;;13.26;57.69
20009;BME280;10165;42.662;23.260;2022-10-12T23:45:49;94883.59;;;13.17;57.98
20009;BME280;10165;42.662;23.260;2022-10-12T23:48:15;94881.19;;;13.55;57.06
20009;BME280;10165;42.662;23.260;2022-10-12T23:50:42;94875.06;;;13.70;56.57
20009;BME280;10165;42.662;23.260;2022-10-12T23:53:10;94873.06;;;13.67;56.83
20009;BME280;10165;42.662;23.260;2022-10-12T23:55:37;94879.47;;;13.35;57.14
20009;BME280;10165;42.662;23.260;2022-10-12T23:58:04;94875.63;;;13.20;57.96
